createdAt,value
2023-08-22T00:01:26.594Z,76.43
2023-08-22T00:04:00.938Z,77.63
2023-08-22T00:06:27.797Z,77.62
2023-08-22T00:08:54.544Z,77.49
2023-08-22T00:11:21.228Z,77.30
2023-08-22T00:13:47.935Z,77.71
2023-08-22T00:16:14.689Z,77.76
2023-08-22T00:18:41.870Z,77.80
2023-08-22T00:21:08.570Z,78.09
2023-08-22T00:23:35.355Z,78.12
2023-08-22T00:26:02.071Z,78.21
2023-08-22T00:28:28.819Z,78.11
2023-08-22T00:30:55.749Z,77.29
2023-08-22T00:33:22.633Z,76.93
2023-08-22T00:35:50.592Z,77.21
2023-08-22T00:38:17.419Z,77.00
2023-08-22T00:40:44.129Z,77.07
2023-08-22T00:43:10.931Z,76.39
2023-08-22T00:45:40.676Z,77.02
2023-08-22T00:48:08.652Z,77.11
2023-08-22T00:50:35.644Z,77.27
2023-08-22T00:53:02.767Z,77.30
2023-08-22T00:55:30.329Z,77.00
2023-08-22T00:57:57.508Z,76.86
2023-08-22T01:00:24.287Z,76.95
2023-08-22T01:02:51.370Z,77.30
2023-08-22T01:05:18.332Z,77.21
2023-08-22T01:07:55.447Z,76.93
2023-08-22T01:10:37.103Z,77.34
2023-08-22T01:13:15.705Z,77.65
2023-08-22T01:15:43.370Z,77.48
2023-08-22T01:18:12.688Z,77.45
2023-08-22T01:20:39.433Z,77.42
2023-08-22T01:23:06.168Z,77.95
2023-08-22T01:25:33.088Z,78.53
2023-08-22T01:28:15.725Z,79.04
2023-08-22T01:30:48.271Z,79.59
2023-08-22T01:33:34.069Z,79.75
2023-08-22T01:36:01.969Z,80.07
2023-08-22T01:38:31.364Z,78.90
2023-08-22T01:40:59.408Z,79.52
2023-08-22T01:43:28.902Z,79.94
2023-08-22T01:45:57.541Z,80.61
2023-08-22T01:48:24.254Z,80.88
2023-08-22T01:50:50.939Z,81.36
2023-08-22T01:53:17.685Z,81.20
2023-08-22T01:55:44.383Z,81.10
2023-08-22T01:58:12.630Z,80.86
2023-08-22T02:00:42.377Z,81.08
2023-08-22T02:03:09.637Z,80.64
2023-08-22T02:05:36.536Z,81.15
2023-08-22T02:08:07.865Z,82.89
2023-08-22T02:10:34.616Z,83.97
2023-08-22T02:13:01.272Z,83.61
2023-08-22T02:15:28.407Z,83.29
2023-08-22T02:17:55.816Z,83.26
2023-08-22T02:20:23.711Z,83.40
2023-08-22T02:22:50.987Z,83.33
2023-08-22T02:25:18.402Z,82.56
2023-08-22T02:27:45.088Z,82.31
2023-08-22T02:30:12.103Z,82.56
2023-08-22T02:32:41.007Z,82.86
2023-08-22T02:35:08.489Z,82.95
2023-08-22T02:37:35.320Z,82.77
2023-08-22T02:40:02.125Z,83.16
2023-08-22T02:42:29.009Z,83.10
2023-08-22T02:44:55.657Z,83.22
2023-08-22T02:47:22.359Z,83.31
2023-08-22T02:49:49.103Z,82.97
2023-08-22T02:52:15.794Z,83.03
2023-08-22T02:54:42.575Z,83.26
2023-08-22T02:57:09.254Z,83.90
2023-08-22T02:59:35.968Z,84.36
2023-08-22T03:02:02.999Z,84.72
2023-08-22T03:04:29.852Z,85.51
2023-08-22T03:06:56.916Z,86.33
2023-08-22T03:09:23.857Z,86.51
2023-08-22T03:11:50.661Z,85.98
2023-08-22T03:14:18.251Z,85.55
2023-08-22T03:16:45.075Z,85.80
2023-08-22T03:19:11.760Z,86.29
2023-08-22T03:21:38.678Z,85.50
2023-08-22T03:24:06.103Z,85.58
2023-08-22T03:26:32.829Z,85.63
2023-08-22T03:28:59.604Z,85.94
2023-08-22T03:31:29.124Z,86.88
2023-08-22T03:33:55.881Z,86.84
2023-08-22T03:36:23.178Z,85.86
2023-08-22T03:38:52.338Z,85.80
2023-08-22T03:41:20.307Z,86.14
2023-08-22T03:43:49.165Z,86.51
2023-08-22T03:46:21.750Z,86.51
2023-08-22T03:48:59.712Z,87.40
2023-08-22T03:51:26.559Z,87.34
2023-08-22T03:53:54.779Z,87.17
2023-08-22T03:56:21.502Z,86.94
2023-08-22T03:58:50.077Z,87.43
2023-08-22T04:01:18.379Z,89.14
2023-08-22T04:03:45.200Z,89.31
2023-08-22T04:06:11.880Z,89.23
2023-08-22T04:08:38.601Z,89.12
2023-08-22T04:11:06.345Z,88.91
2023-08-22T04:13:34.248Z,88.89
2023-08-22T04:16:00.953Z,88.56
2023-08-22T04:18:27.680Z,88.42
2023-08-22T04:20:54.429Z,87.96
2023-08-22T04:23:21.442Z,87.73
2023-08-22T04:25:48.254Z,86.09
2023-08-22T04:28:16.590Z,79.71
2023-08-22T04:30:44.776Z,75.71
2023-08-22T04:33:11.739Z,71.02
2023-08-22T04:35:38.763Z,65.43
2023-08-22T04:38:06.517Z,61.50
2023-08-22T04:40:35.320Z,57.43
2023-08-22T04:43:05.639Z,54.37
2023-08-22T04:45:33.157Z,51.83
2023-08-22T04:48:00.092Z,50.88
2023-08-22T04:50:26.790Z,48.82
2023-08-22T04:52:53.864Z,47.92
2023-08-22T04:55:20.660Z,46.46
2023-08-22T04:57:48.165Z,47.11
2023-08-22T05:00:15.271Z,46.60
2023-08-22T05:02:42.154Z,46.79
2023-08-22T05:05:11.336Z,46.22
2023-08-22T05:07:39.335Z,44.81
2023-08-22T05:10:07.486Z,44.03
2023-08-22T05:12:34.276Z,42.48
2023-08-22T05:15:01.277Z,42.76
2023-08-22T05:17:28.937Z,42.81
2023-08-22T05:19:55.865Z,41.22
2023-08-22T05:22:23.720Z,41.35
2023-08-22T05:24:51.418Z,40.92
2023-08-22T05:27:18.647Z,39.81
2023-08-22T05:29:45.459Z,40.25
2023-08-22T05:32:12.347Z,40.45
2023-08-22T05:34:40.073Z,39.73
2023-08-22T05:37:07.095Z,39.23
2023-08-22T05:39:34.007Z,38.28
2023-08-22T05:42:00.790Z,39.17
2023-08-22T05:44:27.747Z,38.49
2023-08-22T05:46:55.026Z,40.61
2023-08-22T05:49:25.194Z,38.69
2023-08-22T05:52:01.991Z,37.78
2023-08-22T05:54:29.166Z,36.87
2023-08-22T05:56:56.142Z,37.03
2023-08-22T05:59:26.104Z,35.83
2023-08-22T06:01:54.611Z,35.30
2023-08-22T06:04:23.238Z,35.42
2023-08-22T06:06:51.471Z,36.10
2023-08-22T06:09:18.460Z,34.11
2023-08-22T06:11:45.721Z,35.29
2023-08-22T06:14:12.655Z,36.01
2023-08-22T06:16:41.381Z,38.12
2023-08-22T06:19:08.362Z,37.16
2023-08-22T06:21:35.285Z,35.03
2023-08-22T06:24:02.095Z,34.73
2023-08-22T06:26:28.964Z,35.59
2023-08-22T06:28:55.782Z,35.03
2023-08-22T06:31:23.077Z,35.75
2023-08-22T06:33:50.817Z,35.51
2023-08-22T06:36:17.602Z,34.71
2023-08-22T06:38:44.566Z,34.89
2023-08-22T06:41:11.469Z,34.59
2023-08-22T06:43:38.404Z,37.66
2023-08-22T06:46:07.786Z,36.43
2023-08-22T06:48:42.311Z,36.95
2023-08-22T06:51:10.808Z,37.13
2023-08-22T06:53:37.828Z,39.53
2023-08-22T06:56:05.065Z,38.92
2023-08-22T06:58:31.844Z,37.52
2023-08-22T07:00:59.352Z,36.12
2023-08-22T07:03:26.771Z,37.26
2023-08-22T07:05:54.741Z,37.01
2023-08-22T07:08:21.899Z,36.72
2023-08-22T07:10:48.813Z,36.43
2023-08-22T07:13:16.714Z,38.27
2023-08-22T07:15:44.841Z,39.48
2023-08-22T07:18:11.824Z,38.20
2023-08-22T07:20:38.531Z,37.93
2023-08-22T07:23:05.301Z,37.85
2023-08-22T07:25:31.952Z,36.60
2023-08-22T07:27:58.633Z,35.63
2023-08-22T07:30:25.306Z,35.69
2023-08-22T07:32:51.966Z,34.48
2023-08-22T07:35:18.743Z,33.64
2023-08-22T07:37:45.493Z,35.11
2023-08-22T07:40:12.399Z,35.19
2023-08-22T07:42:39.388Z,34.75
2023-08-22T07:45:06.932Z,36.35
2023-08-22T07:47:33.761Z,35.85
2023-08-22T07:50:00.463Z,35.71
2023-08-22T07:52:27.155Z,38.76
2023-08-22T07:54:53.823Z,36.64
2023-08-22T07:57:20.451Z,35.64
2023-08-22T07:59:47.167Z,35.14
2023-08-22T08:02:13.987Z,35.72
2023-08-22T08:04:40.744Z,35.33
2023-08-22T08:07:07.469Z,35.14
2023-08-22T08:09:37.368Z,36.05
2023-08-22T08:12:05.021Z,34.82
2023-08-22T08:14:31.804Z,35.17
2023-08-22T08:16:58.575Z,35.08
2023-08-22T08:19:27.554Z,34.47
2023-08-22T08:21:54.792Z,34.28
2023-08-22T08:24:21.538Z,35.62
2023-08-22T08:26:48.435Z,35.45
2023-08-22T08:29:15.168Z,36.30
2023-08-22T08:31:42.142Z,37.16
2023-08-22T08:34:08.817Z,38.97
2023-08-22T08:36:35.562Z,40.45
2023-08-22T08:39:02.487Z,39.17
2023-08-22T08:41:34.421Z,39.87
2023-08-22T08:44:02.021Z,39.21
2023-08-22T08:46:31.302Z,38.31
2023-08-22T08:48:59.055Z,38.20
2023-08-22T08:51:26.146Z,38.49
2023-08-22T08:53:54.918Z,38.68
2023-08-22T08:56:24.216Z,39.37
2023-08-22T08:58:51.555Z,38.52
2023-08-22T09:01:19.118Z,37.94
2023-08-22T09:03:46.058Z,38.69
2023-08-22T09:06:12.899Z,37.52
2023-08-22T09:08:40.330Z,37.68
2023-08-22T09:11:07.735Z,37.94
2023-08-22T09:13:54.293Z,37.57
2023-08-22T09:16:28.215Z,39.65
2023-08-22T09:19:01.214Z,38.92
2023-08-22T09:21:28.561Z,38.36
2023-08-22T09:24:09.940Z,37.30
2023-08-22T09:26:38.620Z,38.45
2023-08-22T09:29:09.112Z,38.20
2023-08-22T09:31:36.698Z,38.10
2023-08-22T09:34:12.309Z,37.30
2023-08-22T09:36:49.098Z,36.60
2023-08-22T09:39:17.748Z,37.84
2023-08-22T09:41:44.802Z,38.65
2023-08-22T09:44:12.746Z,38.60
2023-08-22T09:46:43.686Z,37.98
2023-08-22T09:49:16.004Z,37.86
2023-08-22T09:51:45.193Z,37.09
2023-08-22T09:54:13.308Z,36.83
2023-08-22T09:56:40.659Z,37.53
2023-08-22T09:59:08.066Z,37.39
2023-08-22T10:01:42.098Z,36.46
2023-08-22T10:04:10.069Z,37.28
2023-08-22T10:06:46.476Z,38.64
2023-08-22T10:09:14.796Z,37.38
2023-08-22T10:11:51.814Z,37.46
2023-08-22T10:14:43.376Z,36.72
2023-08-22T10:17:16.904Z,37.78
2023-08-22T10:19:44.651Z,37.31
2023-08-22T10:22:15.164Z,37.15
2023-08-22T10:24:42.896Z,35.77
2023-08-22T10:27:14.875Z,36.35
2023-08-22T10:29:46.941Z,36.38
2023-08-22T10:32:19.941Z,36.62
2023-08-22T10:34:46.542Z,36.41
2023-08-22T10:37:13.463Z,36.09
2023-08-22T10:39:41.973Z,34.88
2023-08-22T10:42:14.657Z,34.91
2023-08-22T10:44:42.148Z,35.41
2023-08-22T10:47:20.150Z,35.76
2023-08-22T10:50:13.287Z,35.30
2023-08-22T10:52:42.612Z,34.78
2023-08-22T10:55:12.792Z,36.20
2023-08-22T10:57:43.062Z,36.03
2023-08-22T11:00:23.048Z,36.62
2023-08-22T11:02:57.953Z,36.09
2023-08-22T11:05:25.728Z,35.90
2023-08-22T11:07:55.207Z,35.94
2023-08-22T11:10:23.660Z,36.69
2023-08-22T11:12:51.652Z,35.54
2023-08-22T11:15:19.161Z,35.29
2023-08-22T11:17:50.435Z,35.43
2023-08-22T11:20:19.437Z,34.98
2023-08-22T11:22:46.585Z,33.66
2023-08-22T11:25:15.016Z,34.71
2023-08-22T11:27:42.435Z,35.25
2023-08-22T11:30:10.872Z,34.17
2023-08-22T11:32:40.355Z,35.14
2023-08-22T11:35:08.690Z,35.35
2023-08-22T11:37:43.163Z,34.48
2023-08-22T11:40:16.464Z,34.80
2023-08-22T11:42:43.738Z,33.93
2023-08-22T11:45:23.980Z,34.79
2023-08-22T11:47:56.335Z,34.77
2023-08-22T11:50:28.492Z,34.11
2023-08-22T11:52:59.577Z,34.64
2023-08-22T11:55:27.655Z,33.29
2023-08-22T11:58:01.240Z,33.74
2023-08-22T12:00:29.241Z,33.98
2023-08-22T12:02:57.752Z,33.93
2023-08-22T12:05:33.354Z,33.13
2023-08-22T12:08:21.211Z,32.55
2023-08-22T12:10:50.004Z,31.80
2023-08-22T12:13:19.139Z,32.13
2023-08-22T12:15:46.350Z,32.17
2023-08-22T12:18:14.018Z,32.75
2023-08-22T12:20:42.976Z,32.52
2023-08-22T12:23:11.590Z,32.32
2023-08-22T12:25:41.231Z,31.97
2023-08-22T12:28:09.497Z,32.31
2023-08-22T12:30:38.318Z,32.62
2023-08-22T12:33:06.986Z,32.71
2023-08-22T12:35:35.531Z,32.12
2023-08-22T12:38:03.495Z,32.79
2023-08-22T12:40:30.278Z,32.75
2023-08-22T12:42:59.694Z,33.27
2023-08-22T12:45:27.527Z,32.90
2023-08-22T12:47:54.372Z,32.54
2023-08-22T12:50:21.320Z,32.31
2023-08-22T12:52:48.378Z,32.05
2023-08-22T12:55:15.448Z,32.87
2023-08-22T12:57:42.846Z,32.88
2023-08-22T13:00:11.008Z,33.58
2023-08-22T13:02:39.928Z,32.76
2023-08-22T13:05:07.719Z,33.34
2023-08-22T13:07:35.792Z,32.82
2023-08-22T13:10:02.848Z,32.66
2023-08-22T13:12:29.481Z,33.54
2023-08-22T13:14:56.131Z,34.11
2023-08-22T13:17:22.992Z,34.20
2023-08-22T13:19:49.636Z,34.07
2023-08-22T13:22:16.325Z,34.21
2023-08-22T13:24:42.997Z,34.48
2023-08-22T13:27:09.728Z,34.21
2023-08-22T13:29:36.462Z,34.34
2023-08-22T13:32:03.920Z,35.30
2023-08-22T13:34:30.769Z,34.51
2023-08-22T13:36:57.457Z,34.64
2023-08-22T13:39:24.122Z,35.14
2023-08-22T13:41:50.793Z,34.85
2023-08-22T13:44:17.528Z,34.68
2023-08-22T13:46:44.318Z,34.20
2023-08-22T13:49:11.080Z,34.24
2023-08-22T13:51:37.817Z,33.92
2023-08-22T13:54:04.546Z,34.53
2023-08-22T13:56:32.118Z,34.26
2023-08-22T13:58:59.474Z,33.58
2023-08-22T14:01:27.696Z,33.90
2023-08-22T14:03:54.685Z,33.49
2023-08-22T14:06:21.668Z,33.59
2023-08-22T14:08:48.988Z,33.24
2023-08-22T14:11:15.876Z,33.25
2023-08-22T14:13:44.203Z,34.12
2023-08-22T14:16:11.524Z,33.16
2023-08-22T14:18:38.965Z,33.46
2023-08-22T14:21:05.890Z,32.96
2023-08-22T14:23:32.551Z,32.71
2023-08-22T14:25:59.272Z,32.58
2023-08-22T14:28:26.009Z,33.19
2023-08-22T14:30:59.696Z,32.71
2023-08-22T14:33:26.832Z,32.52
2023-08-22T14:35:53.908Z,32.92
2023-08-22T14:38:21.051Z,32.82
2023-08-22T14:40:57.960Z,33.08
2023-08-22T14:43:27.813Z,33.11
2023-08-22T14:45:55.647Z,33.31
2023-08-22T14:48:23.614Z,33.70
2023-08-22T14:50:51.797Z,33.63
2023-08-22T14:53:21.531Z,33.89
2023-08-22T14:56:02.337Z,33.77
2023-08-22T14:58:39.427Z,33.63
2023-08-22T15:01:06.575Z,33.50
2023-08-22T15:03:36.248Z,33.61
2023-08-22T15:06:03.734Z,33.69
2023-08-22T15:08:33.027Z,33.30
2023-08-22T15:10:59.870Z,33.37
2023-08-22T15:13:27.885Z,33.66
2023-08-22T15:15:55.878Z,33.00
2023-08-22T15:18:23.997Z,33.28
2023-08-22T15:20:52.084Z,32.51
2023-08-22T15:23:19.733Z,32.97
2023-08-22T15:25:49.237Z,33.44
2023-08-22T15:28:15.955Z,32.66
2023-08-22T15:30:42.749Z,33.28
2023-08-22T15:33:09.603Z,33.44
2023-08-22T15:35:36.556Z,32.79
2023-08-22T15:38:03.323Z,32.67
2023-08-22T15:40:30.036Z,33.26
2023-08-22T15:42:57.461Z,33.25
2023-08-22T15:45:25.145Z,33.12
2023-08-22T15:47:51.826Z,33.00
2023-08-22T15:50:18.694Z,33.27
2023-08-22T15:52:45.567Z,33.49
2023-08-22T15:55:12.261Z,33.60
2023-08-22T15:57:38.972Z,33.79
2023-08-22T16:00:07.575Z,33.72
2023-08-22T16:02:34.312Z,33.54
2023-08-22T16:05:01.069Z,33.25
2023-08-22T16:07:27.796Z,33.40
2023-08-22T16:09:54.821Z,34.08
2023-08-22T16:12:21.638Z,33.83
2023-08-22T16:14:48.340Z,33.24
2023-08-22T16:17:14.971Z,33.21
2023-08-22T16:19:41.697Z,33.10
2023-08-22T16:22:09.071Z,33.57
2023-08-22T16:24:35.805Z,33.18
2023-08-22T16:27:02.460Z,33.94
2023-08-22T16:29:29.143Z,33.88
2023-08-22T16:31:56.319Z,33.97
2023-08-22T16:34:23.170Z,34.01
2023-08-22T16:36:49.871Z,34.27
2023-08-22T16:39:18.908Z,34.44
2023-08-22T16:41:45.553Z,34.73
2023-08-22T16:44:12.378Z,35.03
2023-08-22T16:46:39.644Z,34.78
2023-08-22T16:49:08.574Z,35.26
2023-08-22T16:51:35.470Z,35.14
2023-08-22T16:54:03.775Z,35.70
2023-08-22T16:56:30.789Z,36.31
2023-08-22T16:59:08.229Z,36.27
2023-08-22T17:01:36.346Z,36.78
2023-08-22T17:04:03.167Z,37.45
2023-08-22T17:06:29.822Z,37.47
2023-08-22T17:08:58.194Z,37.70
2023-08-22T17:11:25.049Z,37.69
2023-08-22T17:13:51.833Z,38.28
2023-08-22T17:16:18.584Z,38.86
2023-08-22T17:18:45.279Z,38.87
2023-08-22T17:21:12.401Z,39.07
2023-08-22T17:23:39.669Z,39.06
2023-08-22T17:26:08.547Z,39.24
2023-08-22T17:28:37.020Z,39.34
2023-08-22T17:31:11.316Z,39.68
2023-08-22T17:33:40.661Z,39.94
2023-08-22T17:36:14.326Z,40.37
2023-08-22T17:38:43.629Z,40.52
2023-08-22T17:41:12.809Z,40.62
2023-08-22T17:43:40.849Z,40.47
2023-08-22T17:46:07.879Z,41.23
2023-08-22T17:48:35.366Z,41.50
2023-08-22T17:51:02.475Z,41.12
2023-08-22T17:53:29.226Z,41.71
2023-08-22T17:55:57.803Z,42.01
2023-08-22T17:58:24.587Z,42.14
2023-08-22T18:00:52.937Z,42.58
2023-08-22T18:03:21.074Z,42.27
2023-08-22T18:05:58.179Z,42.97
2023-08-22T18:08:25.681Z,43.24
2023-08-22T18:10:53.282Z,43.87
2023-08-22T18:13:20.911Z,44.04
2023-08-22T18:16:08.261Z,44.14
2023-08-22T18:18:41.394Z,44.38
2023-08-22T18:21:10.619Z,44.62
2023-08-22T18:23:38.579Z,44.33
2023-08-22T18:26:09.945Z,44.87
2023-08-22T18:28:36.959Z,44.86
2023-08-22T18:31:11.594Z,45.63
2023-08-22T18:33:39.242Z,45.95
2023-08-22T18:36:19.363Z,46.61
2023-08-22T18:38:47.167Z,47.39
2023-08-22T18:41:15.029Z,47.45
2023-08-22T18:43:46.053Z,47.24
2023-08-22T18:46:13.586Z,47.38
2023-08-22T18:48:41.464Z,47.42
2023-08-22T18:51:08.759Z,47.53
2023-08-22T18:53:35.725Z,47.74
2023-08-22T18:56:03.361Z,48.16
2023-08-22T18:58:32.167Z,48.29
2023-08-22T19:00:59.572Z,48.83
2023-08-22T19:03:26.529Z,48.77
2023-08-22T19:05:54.229Z,49.20
2023-08-22T19:08:21.017Z,49.00
2023-08-22T19:10:48.955Z,49.40
2023-08-22T19:13:15.752Z,49.62
2023-08-22T19:15:43.924Z,49.77
2023-08-22T19:18:11.133Z,49.72
2023-08-22T19:20:39.017Z,49.56
2023-08-22T19:23:06.713Z,49.90
2023-08-22T19:25:33.484Z,50.04
2023-08-22T19:28:00.307Z,50.09
2023-08-22T19:30:28.135Z,50.43
2023-08-22T19:33:15.113Z,50.43
2023-08-22T19:35:41.809Z,50.80
2023-08-22T19:38:08.490Z,50.80
2023-08-22T19:40:35.811Z,50.84
2023-08-22T19:43:02.582Z,51.09
2023-08-22T19:45:30.597Z,51.36
2023-08-22T19:47:57.416Z,51.78
2023-08-22T19:50:24.141Z,51.61
2023-08-22T19:52:51.255Z,51.73
2023-08-22T19:55:18.145Z,51.86
2023-08-22T19:57:44.930Z,52.11
2023-08-22T20:00:14.508Z,52.58
2023-08-22T20:02:46.147Z,52.17
2023-08-22T20:05:14.500Z,52.43
2023-08-22T20:07:41.216Z,52.53
2023-08-22T20:10:08.476Z,52.75
2023-08-22T20:12:35.205Z,52.80
2023-08-22T20:15:02.145Z,52.66
2023-08-22T20:17:29.176Z,53.12
2023-08-22T20:19:55.891Z,53.30
2023-08-22T20:22:22.705Z,53.10
2023-08-22T20:24:49.488Z,53.36
2023-08-22T20:27:16.142Z,53.63
2023-08-22T20:29:42.897Z,53.63
2023-08-22T20:32:09.582Z,53.97
2023-08-22T20:34:36.338Z,54.24
2023-08-22T20:37:03.119Z,54.61
2023-08-22T20:39:29.906Z,54.27
2023-08-22T20:41:57.004Z,54.27
2023-08-22T20:44:23.796Z,53.87
2023-08-22T20:46:51.258Z,53.92
2023-08-22T20:49:17.994Z,53.63
2023-08-22T20:51:44.684Z,54.09
2023-08-22T20:54:11.427Z,54.07
2023-08-22T20:56:38.396Z,54.21
2023-08-22T20:59:05.149Z,54.32
2023-08-22T21:01:31.866Z,54.60
2023-08-22T21:03:59.237Z,54.81
2023-08-22T21:06:26.218Z,54.92
2023-08-22T21:08:52.952Z,55.24
2023-08-22T21:11:19.715Z,55.26
2023-08-22T21:13:46.544Z,55.31
2023-08-22T21:16:13.534Z,55.49
2023-08-22T21:18:40.310Z,55.66
2023-08-22T21:21:06.999Z,55.79
2023-08-22T21:23:33.721Z,56.14
2023-08-22T21:26:00.851Z,56.37
2023-08-22T21:28:27.553Z,56.32
2023-08-22T21:30:54.773Z,56.13
2023-08-22T21:33:21.581Z,56.29
2023-08-22T21:35:48.447Z,55.99
2023-08-22T21:38:15.181Z,55.82
2023-08-22T21:40:48.766Z,55.19
2023-08-22T21:43:15.814Z,55.20
2023-08-22T21:45:42.806Z,55.34
2023-08-22T21:48:09.682Z,54.97
2023-08-22T21:50:36.437Z,54.66
2023-08-22T21:53:03.519Z,54.45
2023-08-22T21:55:30.312Z,54.71
2023-08-22T21:57:57.156Z,54.60
2023-08-22T22:00:24.273Z,54.84
2023-08-22T22:02:51.588Z,54.93
2023-08-22T22:05:18.695Z,55.04
2023-08-22T22:07:46.431Z,55.62
2023-08-22T22:10:13.430Z,55.45
2023-08-22T22:12:40.348Z,55.26
2023-08-22T22:15:08.060Z,55.26
2023-08-22T22:17:34.793Z,54.96
2023-08-22T22:20:01.600Z,55.05
2023-08-22T22:22:28.423Z,55.34
2023-08-22T22:24:55.107Z,56.00
2023-08-22T22:27:21.852Z,56.27
2023-08-22T22:29:48.663Z,56.58
2023-08-22T22:32:15.471Z,56.58
2023-08-22T22:34:42.202Z,56.50
2023-08-22T22:37:09.063Z,56.81
2023-08-22T22:39:35.826Z,56.58
2023-08-22T22:42:02.656Z,56.85
2023-08-22T22:44:29.407Z,57.19
2023-08-22T22:46:56.283Z,57.24
2023-08-22T22:49:23.224Z,57.45
2023-08-22T22:51:49.999Z,57.11
2023-08-22T22:54:16.803Z,57.98
2023-08-22T22:56:43.798Z,57.98
2023-08-22T22:59:10.812Z,58.56
2023-08-22T23:01:37.576Z,58.65
2023-08-22T23:04:04.682Z,58.80
2023-08-22T23:06:31.641Z,58.62
2023-08-22T23:08:58.363Z,59.23
2023-08-22T23:11:31.714Z,59.38
2023-08-22T23:14:10.201Z,59.46
2023-08-22T23:16:37.045Z,59.67
2023-08-22T23:19:04.065Z,59.64
2023-08-22T23:42:51.853Z,60.85
2023-08-22T23:45:19.977Z,61.36
2023-08-22T23:47:47.190Z,61.81
2023-08-22T23:50:14.353Z,61.79
2023-08-22T23:52:41.328Z,61.96
2023-08-22T23:55:09.441Z,62.11
2023-08-22T23:57:37.200Z,62.42
